Time;durP1;ratioP1;P1;durP2;ratioP2;P2;SDS_P1;SDS_P2;PMS_P1;PMS_P2;Temp;Humidity;BMP_temperature;BMP_pressure;BME280_temperature;BME280_humidity;BME280_pressure;Samples;Min_cycle;Max_cycle;Signal;HPM_P1;HPM_P2
2022/09/08 00:00:59;;;;;;;3.37;2.37;;;;;;;4.91;100.00;101213.50;1735783;81;20925;-37
2022/09/08 00:03:27;;;;;;;4.37;2.98;;;;;;;4.91;100.00;101213.09;1715076;82;20913;-37
2022/09/08 00:06:10;;;;;;;9.05;2.67;;;;;;;4.91;100.00;101213.09;1715455;82;20933;-37
2022/09/08 00:08:37;;;;;;;6.40;2.92;;;;;;;4.97;100.00;101209.78;1735912;82;21273;-37
2022/09/08 00:11:07;;;;;;;4.83;2.92;;;;;;;5.16;100.00;101206.65;1735770;82;20933;-37
2022/09/08 00:13:36;;;;;;;6.42;2.50;;;;;;;5.42;100.00;101222.88;1735815;82;20973;-37
2022/09/08 00:16:07;;;;;;;9.30;3.42;;;;;;;5.73;100.00;101216.05;1746379;81;20951;-37
2022/09/08 00:18:35;;;;;;;6.33;2.55;;;;;;;6.01;100.00;101216.03;1750126;80;20924;-37
2022/09/08 00:21:02;;;;;;;5.00;2.87;;;;;;;6.28;100.00;101213.36;1750106;82;21537;-37
2022/09/08 00:23:29;;;;;;;9.20;3.30;;;;;;;6.43;100.00;101207.52;1749844;82;20987;-37
2022/09/08 00:25:57;;;;;;;7.00;3.55;;;;;;;6.56;100.00;101204.64;1749866;80;20940;-37
2022/09/08 00:28:23;;;;;;;4.87;3.00;;;;;;;6.72;100.00;101203.08;1749856;82;20940;-37
2022/09/08 00:30:50;;;;;;;11.38;3.58;;;;;;;6.87;100.00;101198.94;1749951;82;20912;-37
2022/09/08 00:33:17;;;;;;;4.42;3.05;;;;;;;6.96;100.00;101191.72;1722259;82;21061;-37
2022/09/08 00:35:44;;;;;;;4.00;3.27;;;;;;;6.99;100.00;101192.59;1749860;82;20979;-37
2022/09/08 00:38:12;;;;;;;9.53;4.33;;;;;;;7.08;100.00;101194.38;1722460;82;20936;-37
2022/09/08 00:40:45;;;;;;;11.10;4.10;;;;;;;7.11;100.00;101187.13;1749908;82;20945;-37
2022/09/08 00:43:40;;;;;;;9.20;3.67;;;;;;;7.13;100.00;101192.70;1749742;81;20964;-37
2022/09/08 00:46:14;;;;;;;18.05;3.75;;;;;;;7.19;100.00;101190.61;1749979;82;21160;-37
2022/09/08 00:48:46;;;;;;;9.88;3.72;;;;;;;7.21;100.00;101191.92;1749727;81;20964;-37
2022/09/08 00:51:14;;;;;;;6.97;3.98;;;;;;;7.21;100.00;101193.20;1749795;82;20937;-37
2022/09/08 00:53:41;;;;;;;7.25;4.22;;;;;;;7.23;99.89;101185.06;1749760;82;20920;-37
2022/09/08 00:56:07;;;;;;;10.38;4.00;;;;;;;7.25;99.43;101182.07;1749690;82;20924;-37
2022/09/08 00:58:36;;;;;;;8.60;4.08;;;;;;;7.26;98.85;101186.37;1749854;82;22089;-37
2022/09/08 01:01:05;;;;;;;7.53;4.03;;;;;;;7.28;98.52;101180.80;1722196;82;21008;-37
2022/09/08 01:03:32;;;;;;;7.95;3.52;;;;;;;7.29;97.76;101182.52;1746982;82;20939;-37
2022/09/08 01:06:11;;;;;;;5.80;4.10;;;;;;;7.27;97.46;101184.23;1749791;82;21470;-37
2022/09/08 01:14:49;;;;;;;10.30;4.00;;;;;;;7.22;96.82;101176.91;1749860;82;20992;-37
2022/09/08 01:17:18;;;;;;;;;;;;;;;7.19;96.62;101173.86;1752162;82;21533;-37
2022/09/08 01:19:46;;;;;;;10.85;3.95;;;;;;;7.14;96.87;101176.40;1749229;82;20432;-37
2022/09/08 01:22:47;;;;;;;8.03;3.85;;;;;;;7.09;97.06;101163.08;1722151;82;20952;-37
2022/09/08 01:25:47;;;;;;;13.35;4.47;;;;;;;7.05;97.03;101166.89;1749905;81;21901;-37
2022/09/08 01:28:22;;;;;;;7.72;4.97;;;;;;;6.98;97.24;101161.70;1749691;82;20951;-37
2022/09/08 01:30:49;;;;;;;10.35;4.50;;;;;;;6.95;96.69;101155.25;1749982;82;21500;-37
2022/09/08 01:33:16;;;;;;;11.03;5.15;;;;;;;7.00;95.81;101152.28;1749694;82;20979;-37
2022/09/08 01:35:43;;;;;;;12.93;4.15;;;;;;;7.03;95.88;101153.59;1750052;82;20932;-37
2022/09/08 01:38:10;;;;;;;8.08;4.50;;;;;;;7.01;95.53;101150.14;1749993;82;21206;-37
2022/09/08 01:40:38;;;;;;;6.67;4.00;;;;;;;7.00;95.32;101145.41;1749837;82;20968;-37
2022/09/08 01:43:08;;;;;;;9.23;4.37;;;;;;;6.99;95.45;101147.98;1749986;82;21407;-37
2022/09/08 01:45:36;;;;;;;14.68;4.87;;;;;;;6.98;95.66;101146.27;1722185;82;20944;-37
2022/09/08 01:48:04;;;;;;;11.50;4.85;;;;;;;6.95;96.21;101143.67;1750379;82;20983;-37
2022/09/08 01:50:30;;;;;;;11.20;4.42;;;;;;;6.93;95.99;101144.05;1749837;82;21198;-37
2022/09/08 01:52:57;;;;;;;16.60;4.85;;;;;;;6.93;95.88;101145.34;1749914;82;20932;-37
2022/09/08 01:55:23;;;;;;;9.98;5.30;;;;;;;6.94;95.56;101141.50;1722596;82;20944;-37
2022/09/08 01:57:50;;;;;;;8.63;5.08;;;;;;;6.98;95.15;101141.96;1750041;82;20960;-37
2022/09/08 02:00:17;;;;;;;8.18;4.78;;;;;;;7.03;94.06;101138.14;1750078;81;21398;-37
2022/09/08 02:02:44;;;;;;;5.72;4.42;;;;;;;7.11;93.55;101139.05;1749953;82;21153;-37
2022/09/08 02:05:11;;;;;;;8.58;4.97;;;;;;;7.17;93.25;101133.93;1749876;82;20968;-37
2022/09/08 02:07:38;;;;;;;8.15;4.85;;;;;;;7.21;92.92;101132.25;1750025;82;21475;-37
2022/09/08 02:10:07;;;;;;;7.40;4.95;;;;;;;7.22;92.71;101131.84;1749907;82;21018;-37
2022/09/08 02:12:34;;;;;;;11.12;5.03;;;;;;;7.22;92.83;101135.70;1750348;81;21584;-38
2022/09/08 02:15:01;;;;;;;13.30;4.90;;;;;;;7.17;93.05;101134.38;1749812;82;21116;-37
2022/09/08 02:17:29;;;;;;;14.93;4.75;;;;;;;7.11;93.25;101133.05;1750101;80;20924;-37
2022/09/08 02:19:56;;;;;;;11.08;5.15;;;;;;;7.05;93.35;101129.56;1722213;82;20983;-37
2022/09/08 02:22:24;;;;;;;17.70;5.05;;;;;;;7.01;93.26;101126.97;1722358;82;21552;-37
2022/09/08 02:24:50;;;;;;;11.10;5.12;;;;;;;6.99;93.42;101126.11;1749921;81;21000;-37
2022/09/08 02:27:17;;;;;;;10.18;5.08;;;;;;;6.94;93.46;101132.49;1750018;82;21051;-37
2022/09/08 02:29:45;;;;;;;9.10;4.75;;;;;;;6.92;93.64;101125.19;1749827;81;20972;-37
2022/09/08 02:32:12;;;;;;;10.32;4.58;;;;;;;6.92;93.89;101129.05;1750061;82;21445;-37
2022/09/08 02:34:39;;;;;;;13.58;4.12;;;;;;;6.89;94.31;101123.44;1749766;81;20896;-37
2022/09/08 02:37:07;;;;;;;8.78;4.90;;;;;;;6.90;94.70;101121.30;1749952;82;20904;-37
2022/09/08 02:39:34;;;;;;;9.93;4.62;;;;;;;6.94;95.12;101125.19;1749864;82;21237;-37
2022/09/08 02:42:00;;;;;;;8.80;5.03;;;;;;;6.95;95.46;101127.78;1749891;82;20928;-37
2022/09/08 02:44:27;;;;;;;11.35;4.95;;;;;;;6.95;95.45;101121.34;1749939;82;21017;-37
2022/09/08 02:46:54;;;;;;;7.58;4.80;;;;;;;6.92;95.67;101117.47;1750152;81;20991;-37
2022/09/08 02:49:21;;;;;;;13.18;5.05;;;;;;;6.89;95.85;101123.44;1749868;82;20940;-37
2022/09/08 02:51:47;;;;;;;8.15;4.72;;;;;;;6.90;96.36;101122.59;1750065;82;21837;-37
2022/09/08 02:54:15;;;;;;;12.95;5.28;;;;;;;6.89;96.59;101125.17;1749862;82;20922;-37
2022/09/08 02:56:42;;;;;;;16.80;4.95;;;;;;;6.87;96.89;101120.00;1749901;82;20928;-37
2022/09/08 02:59:09;;;;;;;12.47;4.60;;;;;;;6.87;97.10;101122.57;1749935;81;20971;-37
2022/09/08 03:01:36;;;;;;;12.23;5.10;;;;;;;6.90;97.40;101125.16;1749765;82;20936;-37
2022/09/08 03:04:02;;;;;;;19.85;4.85;;;;;;;6.98;97.58;101126.52;1722339;82;21277;-37
2022/09/08 03:06:30;;;;;;;7.45;4.37;;;;;;;7.05;97.59;101126.14;1749909;80;20897;-37
2022/09/08 03:08:59;;;;;;;13.03;4.92;;;;;;;7.08;97.58;101126.16;1749950;82;21486;-37
2022/09/08 03:11:26;;;;;;;12.88;4.80;;;;;;;7.12;97.90;101118.03;1749828;82;20865;-37
2022/09/08 03:13:53;;;;;;;16.75;4.87;;;;;;;7.13;98.10;101118.03;1749876;82;21036;-37
2022/09/08 03:16:20;;;;;;;14.58;4.70;;;;;;;7.14;98.30;101126.19;1749817;81;21246;-37
2022/09/08 03:18:48;;;;;;;8.78;4.53;;;;;;;7.15;98.53;101129.64;1749792;81;20932;-37
2022/09/08 03:21:14;;;;;;;4.65;3.85;;;;;;;7.18;98.80;101124.51;1749922;82;21011;-37
2022/09/08 03:23:41;;;;;;;10.58;4.60;;;;;;;7.24;98.90;101126.27;1749889;82;20924;-37
2022/09/08 03:26:15;;;;;;;12.30;4.47;;;;;;;7.28;99.18;101121.56;1750202;82;20960;-37
2022/09/08 03:28:43;;;;;;;20.32;5.25;;;;;;;7.32;99.61;101120.28;1750043;82;22829;-37
2022/09/08 03:31:16;;;;;;;21.93;5.40;;;;;;;7.37;99.93;101122.05;1749769;82;20984;-37
2022/09/08 03:33:43;;;;;;;23.95;4.72;;;;;;;7.44;100.00;101124.64;1749981;82;20968;-37
2022/09/08 03:36:12;;;;;;;14.35;4.28;;;;;;;7.50;100.00;101121.69;1749784;82;21015;-37
2022/09/08 03:38:39;;;;;;;8.60;4.42;;;;;;;7.57;100.00;101126.84;1749917;82;21473;-37
2022/09/08 03:41:10;;;;;;;8.60;4.35;;;;;;;7.65;100.00;101129.47;1749862;82;21078;-37
2022/09/08 03:43:37;;;;;;;6.85;4.50;;;;;;;7.71;100.00;101127.35;1749774;82;20944;-37
2022/09/08 03:46:07;;;;;;;13.00;4.87;;;;;;;7.79;100.00;101133.84;1749779;82;20951;-37
2022/09/08 03:48:34;;;;;;;15.48;4.30;;;;;;;7.86;100.00;101130.42;1722237;82;21024;-37
2022/09/08 03:51:14;;;;;;;8.60;4.78;;;;;;;7.95;100.00;101134.30;1749941;82;20913;-37
2022/09/08 03:53:43;;;;;;;11.53;5.10;;;;;;;8.05;99.82;101129.63;1749923;82;21276;-37
2022/09/08 03:56:10;;;;;;;12.15;4.50;;;;;;;8.14;99.75;101126.62;1749574;82;20913;-37
2022/09/08 03:58:38;;;;;;;11.95;4.55;;;;;;;8.22;99.76;101122.38;1749897;82;21425;-37
2022/09/08 04:01:10;;;;;;;7.95;4.15;;;;;;;8.31;99.63;101125.37;1749758;82;21003;-37
2022/09/08 04:03:38;;;;;;;7.72;4.22;;;;;;;8.42;99.67;101131.84;1749820;82;20972;-37
2022/09/08 04:06:05;;;;;;;7.37;4.83;;;;;;;8.52;99.67;101125.88;1749872;82;21105;-37
2022/09/08 04:08:32;;;;;;;10.00;4.00;;;;;;;8.60;99.66;101124.16;1750239;82;20928;-37
2022/09/08 04:11:00;;;;;;;9.95;4.67;;;;;;;8.72;99.72;101130.20;1749777;81;21003;-37
2022/09/08 04:13:27;;;;;;;7.40;4.30;;;;;;;8.85;100.00;101134.92;1750104;81;21466;-37
2022/09/08 04:15:54;;;;;;;10.75;4.37;;;;;;;9.00;100.00;101136.63;1749887;82;20996;-37
2022/09/08 04:18:21;;;;;;;11.03;4.05;;;;;;;9.14;100.00;101137.91;1749850;82;22141;-37
2022/09/08 04:20:59;;;;;;;10.40;4.25;;;;;;;9.27;100.00;101132.28;1749869;82;20932;-37
2022/09/08 04:23:27;;;;;;;5.15;3.92;;;;;;;9.42;99.81;101142.56;1749700;82;21014;-37
2022/09/08 04:25:56;;;;;;;8.53;4.70;;;;;;;9.59;99.82;101142.95;1722215;82;20991;-37
2022/09/08 04:28:25;;;;;;;12.50;4.03;;;;;;;9.70;99.69;101141.17;1722419;82;20948;-37
2022/09/08 04:30:52;;;;;;;6.08;3.90;;;;;;;9.81;99.76;101138.55;1750302;82;21265;-37
2022/09/08 04:33:19;;;;;;;7.95;3.95;;;;;;;9.91;99.51;101131.61;1749713;81;21447;-37
2022/09/08 04:35:46;;;;;;;13.88;4.45;;;;;;;10.00;99.17;101133.30;1722042;82;20940;-38
2022/09/08 04:38:13;;;;;;;15.40;4.83;;;;;;;10.08;98.86;101135.40;1749852;82;20904;-37
2022/09/08 04:40:41;;;;;;;4.28;3.85;;;;;;;10.20;98.39;101140.94;1749780;82;20992;-37
2022/09/08 04:43:09;;;;;;;20.85;4.60;;;;;;;10.30;98.42;101138.73;1749902;82;21958;-37
2022/09/08 04:45:35;;;;;;;10.53;3.98;;;;;;;10.41;98.38;101135.23;1749654;82;21020;-37
2022/09/08 04:48:02;;;;;;;15.20;3.40;;;;;;;10.50;98.41;101149.44;1749850;82;21031;-37
2022/09/08 04:50:29;;;;;;;9.20;3.40;;;;;;;10.59;97.91;101142.88;1749897;82;21537;-37
2022/09/08 04:52:56;;;;;;;7.62;3.58;;;;;;;10.70;97.59;101145.81;1749859;82;20893;-37
2022/09/08 04:55:22;;;;;;;8.80;3.77;;;;;;;10.81;97.41;101144.43;1749709;81;21540;-38
2022/09/08 04:57:49;;;;;;;5.62;3.60;;;;;;;10.94;96.96;101146.06;1749679;81;20928;-38
2022/09/08 05:00:18;;;;;;;10.23;4.03;;;;;;;11.07;96.40;101146.80;1749875;82;20857;-38
2022/09/08 05:02:46;;;;;;;9.20;3.33;;;;;;;11.21;96.59;101146.21;1739329;81;21494;-37
2022/09/08 05:05:12;;;;;;;6.22;3.83;;;;;;;11.35;97.22;101138.75;1749896;82;20980;-37
2022/09/08 05:07:41;;;;;;;7.45;3.35;;;;;;;11.47;96.94;101148.13;1749845;82;20908;-38
2022/09/08 05:10:08;;;;;;;8.80;4.37;;;;;;;11.59;96.83;101148.42;1749659;81;21410;-37
2022/09/08 05:12:37;;;;;;;13.90;4.42;;;;;;;11.68;97.52;101150.05;1723029;82;20932;-37
2022/09/08 05:15:06;;;;;;;16.87;5.55;;;;;;;11.72;97.53;101143.50;1749624;82;20976;-37
2022/09/08 05:17:33;;;;;;;22.93;6.35;;;;;;;11.75;97.42;101144.78;1740117;81;21593;-38
2022/09/08 05:20:01;;;;;;;15.43;5.62;;;;;;;11.83;97.66;101154.20;1735728;81;21345;-37
2022/09/08 05:22:30;;;;;;;19.60;6.00;;;;;;;11.84;97.45;101162.39;1735612;82;21015;-38
2022/09/08 05:24:57;;;;;;;14.70;4.22;;;;;;;11.84;97.23;101155.45;1735899;82;20965;-37
2022/09/08 05:27:23;;;;;;;10.03;4.70;;;;;;;11.90;96.95;101158.42;1735870;81;21478;-38
2022/09/08 05:32:36;;;;;;;10.43;4.15;;;;;;;12.05;96.59;101153.50;1798402;79;22686;-37
2022/09/08 05:35:07;;;;;;;6.15;3.35;;;;;;;12.07;95.86;101157.80;1758100;80;20884;-37
2022/09/08 05:37:34;;;;;;;9.65;3.35;;;;;;;12.16;94.37;101152.93;1758134;81;21878;-37
2022/09/08 05:40:03;;;;;;;4.67;2.85;;;;;;;12.30;91.56;101154.45;1757925;81;20948;-37
2022/09/08 05:42:29;;;;;;;6.30;3.20;;;;;;;12.45;90.81;101153.36;1696208;81;20940;-37
2022/09/08 05:44:56;;;;;;;9.85;3.40;;;;;;;12.56;89.01;101148.01;1724562;83;20971;-37
2022/09/08 05:47:23;;;;;;;9.15;3.20;;;;;;;12.67;86.56;101144.81;1724477;83;20956;-37
2022/09/08 05:49:50;;;;;;;5.17;3.62;;;;;;;12.83;85.50;101141.52;1724507;83;21254;-37
2022/09/08 05:52:17;;;;;;;7.95;3.62;;;;;;;12.98;82.20;101137.80;1724536;83;20904;-37
2022/09/08 05:54:44;;;;;;;7.03;3.37;;;;;;;13.11;82.11;101142.34;1724222;83;21193;-37
2022/09/08 05:57:13;;;;;;;4.37;3.20;;;;;;;13.23;81.45;101138.20;1698604;84;21019;-37
2022/09/08 05:59:41;;;;;;;4.83;3.40;;;;;;;13.34;81.29;101134.09;1716538;82;20991;-38
2022/09/08 06:02:08;;;;;;;11.00;3.40;;;;;;;13.43;78.42;101131.80;1709230;82;21968;-37
2022/09/08 06:04:35;;;;;;;6.58;3.33;;;;;;;13.53;78.04;101139.44;1709064;82;21057;-38
2022/09/08 06:07:01;;;;;;;7.00;3.72;;;;;;;13.59;77.12;101129.73;1708985;84;20983;-38
2022/09/08 06:09:29;;;;;;;10.23;3.75;;;;;;;13.66;77.77;101125.28;1709064;84;20956;-38
2022/09/08 06:11:57;;;;;;;5.65;3.35;;;;;;;13.74;78.13;101121.22;1709025;83;20999;-38
2022/09/08 06:14:24;;;;;;;5.70;3.58;;;;;;;13.81;77.21;101114.98;1708945;83;21042;-38
2022/09/08 06:16:50;;;;;;;4.85;3.55;;;;;;;13.91;76.89;101115.22;1708987;84;21534;-37
2022/09/08 06:19:19;;;;;;;4.17;3.02;;;;;;;14.00;75.87;101110.23;1708926;83;21588;-37
2022/09/08 06:21:45;;;;;;;6.47;3.42;;;;;;;14.12;76.13;101106.49;1709113;84;20963;-37
2022/09/08 06:24:16;;;;;;;11.95;3.35;;;;;;;14.23;74.25;101101.91;1709077;84;21600;-38
2022/09/08 06:26:53;;;;;;;8.73;3.60;;;;;;;14.35;74.67;101102.50;1708761;84;21070;-38
2022/09/08 06:29:44;;;;;;;14.00;3.80;;;;;;;14.48;74.39;101103.92;1709341;84;20969;-37
2022/09/08 06:32:26;;;;;;;12.37;3.77;;;;;;;14.63;75.61;101108.33;1703737;83;20992;-38
2022/09/08 06:34:58;;;;;;;10.58;3.37;;;;;;;14.80;75.35;101107.50;1711467;83;21047;-38
2022/09/08 06:37:38;;;;;;;12.70;3.70;;;;;;;14.98;73.33;101112.27;1701858;84;21513;-37
2022/09/08 06:40:13;;;;;;;12.30;3.17;;;;;;;15.13;70.52;101113.60;1686320;85;21298;-38
2022/09/08 06:42:58;;;;;;;9.98;3.65;;;;;;;15.26;70.23;101108.91;1711278;82;20948;-38
2022/09/08 06:45:38;;;;;;;5.80;2.90;;;;;;;15.37;69.85;101104.27;1701546;84;20972;-38
2022/09/08 06:48:17;;;;;;;9.95;3.12;;;;;;;15.54;67.88;101110.77;1711135;83;20979;-38
2022/09/08 06:51:13;;;;;;;9.68;2.80;;;;;;;15.69;66.62;101112.91;1701561;84;21035;-38
2022/09/08 06:54:02;;;;;;;;;;;;;;;15.86;65.04;101120.70;1708938;82;21910;-38
2022/09/08 06:57:02;;;;;;;6.58;2.80;;;;;;;16.01;63.83;101120.25;1682425;84;20119;-37
2022/09/08 06:59:56;;;;;;;12.03;3.02;;;;;;;16.15;64.96;101117.20;1711260;82;20991;-37
2022/09/08 07:02:48;;;;;;;12.23;3.33;;;;;;;16.31;63.53;101121.95;1701462;84;20952;-37
2022/09/08 07:05:59;;;;;;;13.08;2.62;;;;;;;16.44;62.92;101121.11;1697511;83;21042;-38
2022/09/08 07:08:52;;;;;;;7.62;2.60;;;;;;;16.60;62.41;101125.37;1701410;84;21277;-38
2022/09/08 07:11:58;;;;;;;16.97;2.58;;;;;;;16.70;58.82;101125.49;1710916;83;20952;-36
2022/09/08 07:14:43;;;;;;;8.38;2.47;;;;;;;16.83;59.36;101127.23;1701542;84;20991;-37
2022/09/08 07:17:25;;;;;;;10.48;2.75;;;;;;;16.98;58.49;101122.38;1710992;83;20940;-38
2022/09/08 07:19:55;;;;;;;14.75;2.72;;;;;;;17.10;56.98;101128.53;1701053;83;20988;-37
2022/09/08 07:22:53;;;;;;;5.72;2.30;;;;;;;17.30;55.80;101132.17;1711163;83;21251;-38
2022/09/08 07:25:37;;;;;;;4.83;2.17;;;;;;;17.48;55.21;101136.74;1692062;83;21011;-37
2022/09/08 07:28:20;;;;;;;5.20;2.33;;;;;;;17.66;55.55;101135.20;1701489;84;20920;-39
2022/09/08 07:30:58;;;;;;;6.05;2.98;;;;;;;17.84;55.69;101132.81;1711019;83;21039;-37
2022/09/08 07:33:34;;;;;;;2.90;2.70;;;;;;;18.05;54.39;101126.38;1682650;84;21011;-37
2022/09/08 07:36:40;;;;;;;10.40;2.58;;;;;;;18.17;54.56;101116.71;1710947;83;26893;-38
2022/09/08 07:39:23;;;;;;;7.23;2.47;;;;;;;18.27;53.11;101125.53;1701743;84;20968;-37
2022/09/08 07:41:54;;;;;;;7.42;2.70;;;;;;;18.31;52.07;101120.09;1707976;83;21219;-38
2022/09/08 07:44:21;;;;;;;5.58;2.45;;;;;;;18.43;52.41;101125.76;1701606;84;20991;-38
2022/09/08 07:47:13;;;;;;;5.05;2.85;;;;;;;18.55;52.94;101125.71;1710996;83;20892;-38
2022/09/08 07:50:06;;;;;;;8.30;2.60;;;;;;;18.67;52.71;101128.67;1701374;84;21262;-39
2022/09/08 07:52:56;;;;;;;8.35;2.75;;;;;;;18.81;53.28;101132.47;1711047;83;20987;-37
2022/09/08 07:55:41;;;;;;;8.83;2.90;;;;;;;18.77;52.24;101129.59;1701064;84;20967;-38
2022/09/08 07:58:31;;;;;;;5.80;2.92;;;;;;;18.75;52.29;101136.67;1711142;82;21533;-38
2022/09/08 08:01:22;;;;;;;6.83;2.92;;;;;;;18.65;52.09;101129.64;1701496;84;20897;-38
2022/09/08 08:04:26;;;;;;;4.85;2.50;;;;;;;18.58;52.12;101127.77;1694889;83;21258;-38
2022/09/08 08:06:55;;;;;;;3.92;2.55;;;;;;;18.58;50.58;101138.25;1701425;84;20960;-38
2022/09/08 08:09:42;;;;;;;13.53;3.40;;;;;;;18.56;50.86;101138.73;1710906;82;21010;-37
2022/09/08 08:12:20;;;;;;;10.43;3.50;;;;;;;18.48;49.72;101139.52;1701220;83;21011;-38
2022/09/08 08:15:18;;;;;;;15.15;3.50;;;;;;;18.33;48.98;101137.07;1711088;83;21015;-37
2022/09/08 08:18:26;;;;;;;13.43;3.42;;;;;;;18.24;48.03;101130.42;1701602;84;21205;-37
2022/09/08 08:21:08;;;;;;;12.78;3.40;;;;;;;18.11;48.21;101134.46;1710955;83;20947;-38
2022/09/08 08:24:06;;;;;;;12.85;3.20;;;;;;;18.07;49.42;101142.45;1688720;84;20999;-37
2022/09/08 08:27:01;;;;;;;13.72;3.12;;;;;;;18.12;47.48;101140.09;1711057;83;20936;-38
2022/09/08 08:29:50;;;;;;;8.20;3.08;;;;;;;18.01;47.50;101143.97;1701392;84;21537;-38
2022/09/08 08:32:27;;;;;;;9.95;2.85;;;;;;;17.88;47.88;101149.27;1706419;83;21217;-38
2022/09/08 08:34:58;;;;;;;12.00;3.08;;;;;;;17.74;48.05;101144.55;1695648;84;20983;-38
2022/09/08 08:37:29;;;;;;;12.68;3.52;;;;;;;17.63;46.92;101143.17;1695539;84;21025;-38
2022/09/08 08:39:55;;;;;;;10.98;3.12;;;;;;;17.58;48.17;101149.52;1695646;83;20960;-38
2022/09/08 08:42:59;;;;;;;8.08;3.10;;;;;;;17.57;47.95;101146.50;1695961;84;20952;-38
2022/09/08 08:46:02;;;;;;;21.50;3.20;;;;;;;17.58;47.94;101150.82;1695963;83;21029;-38
2022/09/08 08:48:34;;;;;;;10.35;3.52;;;;;;;17.57;48.02;101130.80;1636058;84;21028;-38
2022/09/08 08:51:39;;;;;;;11.05;3.72;;;;;;;17.54;49.47;101138.29;1694895;84;21075;-38
2022/09/08 08:54:42;;;;;;;12.93;3.58;;;;;;;17.64;51.41;101137.02;1696004;84;20961;-38
2022/09/08 08:57:29;;;;;;;13.38;3.47;;;;;;;17.90;51.81;101136.49;1676079;84;21587;-38
2022/09/08 09:00:21;;;;;;;8.00;3.62;;;;;;;18.27;50.13;101136.84;1695892;84;21268;-38
2022/09/08 09:03:03;;;;;;;9.38;3.25;;;;;;;18.51;48.58;101132.40;1695712;84;20929;-38
2022/09/08 09:06:08;;;;;;;10.32;3.20;;;;;;;18.80;49.43;101129.45;1695570;84;21433;-38
2022/09/08 09:09:12;;;;;;;12.40;3.02;;;;;;;18.97;48.28;101126.14;1695727;83;21478;-38
2022/09/08 09:12:00;;;;;;;7.97;3.30;;;;;;;19.00;47.34;101131.28;1695887;84;20968;-38
2022/09/08 09:15:07;;;;;;;6.10;3.30;;;;;;;19.07;47.80;101131.84;1695914;83;21119;-39
2022/09/08 09:17:46;;;;;;;7.97;2.95;;;;;;;19.33;47.64;101124.63;1695845;83;21581;-39
2022/09/08 09:20:25;;;;;;;9.93;3.12;;;;;;;19.59;46.88;101124.73;1690669;84;21023;-39
2022/09/08 09:23:01;;;;;;;13.95;3.27;;;;;;;19.65;46.33;101127.55;1695798;84;20968;-39
2022/09/08 09:25:37;;;;;;;3.35;2.70;;;;;;;19.63;47.23;101122.36;1695831;83;20960;-39
2022/09/08 09:28:54;;;;;;;8.28;2.33;;;;;;;19.78;46.44;101126.04;1695931;84;21317;-39
2022/09/08 09:31:48;;;;;;;15.30;3.02;;;;;;;20.09;47.96;101124.64;1695818;84;21020;-39
2022/09/08 09:34:43;;;;;;;9.50;3.08;;;;;;;20.49;45.02;101131.49;1695852;83;20952;-39
2022/09/08 09:37:39;;;;;;;14.03;2.98;;;;;;;20.53;45.46;101122.07;1695518;83;21030;-39
2022/09/08 09:40:55;;;;;;;7.60;3.02;;;;;;;20.66;45.56;101117.05;1695705;84;20912;-39
2022/09/08 09:43:48;;;;;;;10.00;3.30;;;;;;;20.82;45.75;101122.85;1695702;83;21024;-39
2022/09/08 09:46:44;;;;;;;7.08;3.02;;;;;;;21.02;43.53;101126.24;1695727;84;21012;-39
2022/09/08 09:49:22;;;;;;;;;;;;;;;21.08;45.59;101123.28;1698342;84;21015;-39
2022/09/08 09:52:09;;;;;;;18.67;3.30;;;;;;;21.30;44.12;101121.70;1695651;84;20151;-39
2022/09/08 09:55:15;;;;;;;11.55;2.95;;;;;;;21.52;44.52;101122.70;1695986;83;20964;-39
2022/09/08 09:58:16;;;;;;;6.78;3.00;;;;;;;21.87;44.14;101110.36;1695948;84;21204;-39
2022/09/08 10:00:55;;;;;;;12.05;2.90;;;;;;;22.19;44.99;101118.23;1693684;84;20968;-39
2022/09/08 10:04:13;;;;;;;11.93;2.85;;;;;;;22.43;43.71;101119.08;1679875;84;21008;-39
2022/09/08 10:07:15;;;;;;;5.53;3.00;;;;;;;22.37;44.17;101125.09;1696072;84;21518;-39
2022/09/08 10:10:20;;;;;;;2.60;2.40;;;;;;;22.07;43.04;101131.16;1695829;84;20964;-38
2022/09/08 10:13:02;;;;;;;11.60;3.10;;;;;;;21.72;44.12;101134.43;1696073;83;21108;-38
2022/09/08 10:16:04;;;;;;;9.53;3.65;;;;;;;21.85;47.62;101124.06;1679391;84;21521;-38
2022/09/08 10:19:00;;;;;;;10.58;3.33;;;;;;;22.27;46.76;101121.27;1695919;84;21502;-38
2022/09/08 10:22:09;;;;;;;6.95;3.05;;;;;;;22.60;45.10;101121.58;1680481;84;20921;-38
2022/09/08 10:24:50;;;;;;;4.35;2.90;;;;;;;22.53;44.51;101119.80;1695725;83;20861;-38
2022/09/08 10:27:47;;;;;;;6.87;2.90;;;;;;;22.31;45.68;101104.81;1695702;84;21047;-39
2022/09/08 10:30:32;;;;;;;;;;;;;;;22.43;45.95;101117.75;1698502;84;21000;-39
2022/09/08 10:33:33;;;;;;;5.58;2.67;;;;;;;22.48;44.83;101113.09;1648946;86;20086;-39
2022/09/08 10:36:08;;;;;;;7.92;2.55;;;;;;;22.34;44.87;101118.64;1688953;84;20960;-39
2022/09/08 10:38:59;;;;;;;7.15;2.75;;;;;;;22.06;44.55;101118.91;1702960;84;20892;-39
2022/09/08 10:42:03;;;;;;;5.30;2.75;;;;;;;22.10;44.07;101120.47;1693408;84;21794;-39
2022/09/08 10:45:10;;;;;;;8.75;2.85;;;;;;;22.18;45.41;101116.05;1702407;84;20987;-39
2022/09/08 10:47:49;;;;;;;7.70;3.42;;;;;;;22.19;44.36;101111.16;1693363;84;21556;-39
2022/09/08 10:50:23;;;;;;;8.48;2.42;;;;;;;22.12;45.83;101110.30;1703047;84;20971;-39
2022/09/08 10:53:33;;;;;;;8.43;2.60;;;;;;;21.93;45.67;101116.60;1693390;84;21012;-39
2022/09/08 10:56:10;;;;;;;6.17;2.50;;;;;;;21.67;46.33;101120.22;1702849;84;21414;-39
2022/09/08 10:59:07;;;;;;;3.62;2.67;;;;;;;21.24;47.14;101121.55;1674728;85;21007;-39
2022/09/08 11:02:12;;;;;;;4.53;3.10;;;;;;;20.91;48.85;101124.16;1741043;82;21498;-39
2022/09/08 11:04:53;;;;;;;4.30;2.50;;;;;;;20.61;49.25;101121.69;1740803;82;21019;-39
2022/09/08 11:07:57;;;;;;;7.53;2.95;;;;;;;20.52;50.29;101120.38;1741101;82;20878;-39
2022/09/08 11:10:42;;;;;;;9.70;3.58;;;;;;;20.62;49.07;101115.95;1740952;82;21169;-39
2022/09/08 11:13:31;;;;;;;7.08;3.05;;;;;;;20.71;47.80;101116.79;1740649;82;21000;-39
2022/09/08 11:16:36;;;;;;;13.43;3.00;;;;;;;20.66;48.15;101113.09;1740852;82;20926;-39
2022/09/08 11:19:36;;;;;;;7.25;2.60;;;;;;;20.79;48.79;101117.30;1740763;82;20965;-39
2022/09/08 11:22:11;;;;;;;8.08;2.52;;;;;;;21.17;47.20;101114.92;1741022;82;21011;-39
2022/09/08 11:25:07;;;;;;;5.58;2.98;;;;;;;21.33;47.15;101115.41;1737881;82;21163;-39
2022/09/08 11:27:51;;;;;;;8.88;2.42;;;;;;;21.19;46.30;101122.27;1701068;82;20908;-39
2022/09/08 11:30:21;;;;;;;5.15;3.25;;;;;;;20.95;48.03;101115.18;1741265;82;20928;-39
2022/09/08 11:33:18;;;;;;;8.90;2.90;;;;;;;20.86;47.27;101126.19;1739454;81;20973;-39
2022/09/08 11:36:05;;;;;;;5.12;2.95;;;;;;;20.70;47.09;101116.88;1735808;81;20917;-39
2022/09/08 11:38:55;;;;;;;6.90;2.90;;;;;;;20.30;46.75;101113.98;1715013;82;21985;-38
2022/09/08 11:41:40;;;;;;;5.75;2.80;;;;;;;20.17;48.69;101121.63;1730714;82;21051;-39
2022/09/08 11:44:38;;;;;;;8.45;2.83;;;;;;;20.31;49.30;101113.06;1735750;82;20929;-39
2022/09/08 11:47:53;;;;;;;3.90;2.98;;;;;;;20.49;48.18;101117.89;1710557;82;20979;-39
2022/09/08 11:50:28;;;;;;;3.60;3.20;;;;;;;20.65;49.13;101109.22;1735728;82;20996;-39
2022/09/08 11:53:38;;;;;;;6.10;2.98;;;;;;;21.34;50.10;101109.20;1735806;82;22205;-39
2022/09/08 11:56:29;;;;;;;5.62;2.77;;;;;;;21.81;47.53;101112.38;1735653;81;21400;-38
2022/09/08 11:59:04;;;;;;;3.75;2.70;;;;;;;21.83;45.33;101105.72;1735119;82;21487;-38
2022/09/08 12:01:59;;;;;;;6.00;2.72;;;;;;;21.62;46.86;101117.79;1735892;82;20936;-38
2022/09/08 12:04:58;;;;;;;7.20;3.27;;;;;;;21.46;47.87;101108.56;1736152;82;20838;-38
2022/09/08 12:07:36;;;;;;;9.93;2.90;;;;;;;21.34;47.84;101115.79;1735941;82;21202;-38
2022/09/08 12:10:18;;;;;;;6.55;2.67;;;;;;;21.02;45.72;101115.72;1735854;82;20969;-38
2022/09/08 12:13:09;;;;;;;7.87;2.60;;;;;;;20.63;48.38;101102.73;1737911;82;21495;-38
2022/09/08 12:16:04;;;;;;;3.12;2.80;;;;;;;20.55;48.71;101107.99;1735895;82;20897;-39
2022/09/08 12:18:55;;;;;;;6.55;3.50;;;;;;;20.45;48.90;101109.75;1736069;82;20960;-38
2022/09/08 12:21:59;;;;;;;5.33;2.98;;;;;;;20.26;49.48;101103.73;1736003;81;21045;-38
2022/09/08 12:24:54;;;;;;;6.33;3.52;;;;;;;20.06;51.37;101102.43;1735761;82;20999;-38